Time;durP1;ratioP1;P1;durP2;ratioP2;P2;SDS_P1;SDS_P2;PMS_P1;PMS_P2;Temp;Humidity;BMP_temperature;BMP_pressure;BME280_temperature;BME280_humidity;BME280_pressure;Samples;Min_cycle;Max_cycle;Signal;HPM_P1;HPM_P2
2020/12/25 00:00:29;;;;;;;4.63;2.9;;;5.6;99.9;;;;;;;;;
2020/12/25 00:01:02;;;;;;;4.63;2.9;;;5.6;99.9;;;;;;;;;
2020/12/25 00:02:02;;;;;;;3.2;2.9;;;5.6;99.9;;;;;;;;;
2020/12/25 00:02:42;;;;;;;2.93;2.7;;;5.6;99.9;;;;;;;;;
2020/12/25 00:03:02;;;;;;;2.93;2.7;;;5.6;99.9;;;;;;;;;
2020/12/25 00:03:15;;;;;;;2.93;2.7;;;5.6;99.9;;;;;;;;;
2020/12/25 00:04:04;;;;;;;4.07;2.77;;;5.5;99.9;;;;;;;;;
2020/12/25 00:04:14;;;;;;;4.07;2.77;;;5.5;99.9;;;;;;;;;
2020/12/25 00:04:55;;;;;;;7.1;3.2;;;5.4;99.9;;;;;;;;;
2020/12/25 00:05:02;;;;;;;7.1;3.2;;;5.4;99.9;;;;;;;;;
2020/12/25 00:05:16;;;;;;;7.1;3.2;;;5.4;99.9;;;;;;;;;
2020/12/25 00:05:26;;;;;;;7.1;3.2;;;5.4;99.9;;;;;;;;;
2020/12/25 00:06:02;;;;;;;5.4;3.1;;;5.3;99.9;;;;;;;;;
2020/12/25 00:06:17;;;;;;;5.4;3.1;;;5.3;99.9;;;;;;;;;
2020/12/25 00:06:27;;;;;;;5.4;3.1;;;5.3;99.9;;;;;;;;;
2020/12/25 00:07:02;;;;;;;3.4;3.07;;;5.3;99.9;;;;;;;;;
2020/12/25 00:07:08;;;;;;;3.4;3.07;;;5.3;99.9;;;;;;;;;
2020/12/25 00:07:13;;;;;;;3.4;3.07;;;5.3;99.9;;;;;;;;;
2020/12/25 00:07:29;;;;;;;3.4;3.07;;;5.3;99.9;;;;;;;;;
2020/12/25 00:07:39;;;;;;;7.47;3.33;;;5.3;99.9;;;;;;;;;
2020/12/25 00:08:02;;;;;;;7.47;3.33;;;5.3;99.9;;;;;;;;;
2020/12/25 00:08:15;;;;;;;7.47;3.33;;;5.3;99.9;;;;;;;;;
2020/12/25 00:08:30;;;;;;;5.6;3;;;5.3;99.9;;;;;;;;;
2020/12/25 00:08:45;;;;;;;5.6;3;;;5.3;99.9;;;;;;;;;
2020/12/25 00:09:02;;;;;;;5.6;3;;;5.3;99.9;;;;;;;;;
2020/12/25 00:09:16;;;;;;;5.6;3;;;5.3;99.9;;;;;;;;;
2020/12/25 00:09:26;;;;;;;5.6;3;;;5.3;99.9;;;;;;;;;
2020/12/25 00:09:42;;;;;;;3.7;2.6;;;5.3;99.9;;;;;;;;;
2020/12/25 00:09:52;;;;;;;3.7;2.6;;;5.3;99.9;;;;;;;;;
2020/12/25 00:10:02;;;;;;;3.7;2.6;;;5.3;99.9;;;;;;;;;
2020/12/25 00:10:12;;;;;;;3.7;2.6;;;5.3;99.9;;;;;;;;;
2020/12/25 00:10:28;;;;;;;3.7;2.6;;;5.3;99.9;;;;;;;;;
2020/12/25 00:10:43;;;;;;;3.8;3;;;5.2;99.9;;;;;;;;;
2020/12/25 00:10:58;;;;;;;3.8;3;;;5.2;99.9;;;;;;;;;
2020/12/25 00:11:02;;;;;;;3.8;3;;;5.2;99.9;;;;;;;;;
2020/12/25 00:11:14;;;;;;;3.8;3;;;5.2;99.9;;;;;;;;;
2020/12/25 00:11:29;;;;;;;3.8;3;;;5.2;99.9;;;;;;;;;
2020/12/25 00:11:39;;;;;;;3.37;3;;;5.3;99.9;;;;;;;;;
2020/12/25 00:11:55;;;;;;;3.37;3;;;5.3;99.9;;;;;;;;;
2020/12/25 00:12:02;;;;;;;3.37;3;;;5.3;99.9;;;;;;;;;
2020/12/25 00:12:05;;;;;;;3.37;3;;;5.3;99.9;;;;;;;;;
2020/12/25 00:12:15;;;;;;;3.37;3;;;5.3;99.9;;;;;;;;;
2020/12/25 00:12:26;;;;;;;3.37;3;;;5.3;99.9;;;;;;;;;
2020/12/25 00:12:41;;;;;;;3.17;2.87;;;5.2;99.9;;;;;;;;;
2020/12/25 00:12:56;;;;;;;3.17;2.87;;;5.2;99.9;;;;;;;;;
2020/12/25 00:13:02;;;;;;;3.17;2.87;;;5.2;99.9;;;;;;;;;
2020/12/25 00:13:12;;;;;;;3.17;2.87;;;5.2;99.9;;;;;;;;;
2020/12/25 00:13:12;;;;;;;3.17;2.87;;;5.2;99.9;;;;;;;;;
2020/12/25 00:13:27;;;;;;;3.17;2.87;;;5.2;99.9;;;;;;;;;
2020/12/25 00:13:42;;;;;;;5;3.13;;;5.3;99.9;;;;;;;;;
2020/12/25 00:13:53;;;;;;;5;3.13;;;5.3;99.9;;;;;;;;;
2020/12/25 00:14:02;;;;;;;5;3.13;;;5.3;99.9;;;;;;;;;
2020/12/25 00:14:08;;;;;;;5;3.13;;;5.3;99.9;;;;;;;;;
2020/12/25 00:14:13;;;;;;;5;3.13;;;5.3;99.9;;;;;;;;;
2020/12/25 00:14:28;;;;;;;5;3.13;;;5.3;99.9;;;;;;;;;
2020/12/25 00:14:39;;;;;;;4.5;3.4;;;5.2;99.9;;;;;;;;;
2020/12/25 00:14:54;;;;;;;4.5;3.4;;;5.2;99.9;;;;;;;;;
2020/12/25 00:15:02;;;;;;;4.5;3.4;;;5.2;99.9;;;;;;;;;
2020/12/25 00:15:09;;;;;;;4.5;3.4;;;5.2;99.9;;;;;;;;;
2020/12/25 00:15:14;;;;;;;4.5;3.4;;;5.2;99.9;;;;;;;;;
2020/12/25 00:15:25;;;;;;;4.5;3.4;;;5.2;99.9;;;;;;;;;
2020/12/25 00:15:40;;;;;;;4.9;3.3;;;5.2;99.9;;;;;;;;;
2020/12/25 00:15:55;;;;;;;4.9;3.3;;;5.2;99.9;;;;;;;;;
2020/12/25 00:16:01;;;;;;;4.9;3.3;;;5.2;99.9;;;;;;;;;
2020/12/25 00:16:06;;;;;;;4.9;3.3;;;5.2;99.9;;;;;;;;;
2020/12/25 00:16:16;;;;;;;4.9;3.3;;;5.2;99.9;;;;;;;;;
2020/12/25 00:16:26;;;;;;;4.9;3.3;;;5.2;99.9;;;;;;;;;
2020/12/25 00:16:41;;;;;;;4.4;3.37;;;5.1;99.9;;;;;;;;;
2020/12/25 00:16:52;;;;;;;4.4;3.37;;;5.1;99.9;;;;;;;;;
2020/12/25 00:17:02;;;;;;;4.4;3.37;;;5.1;99.9;;;;;;;;;
2020/12/25 00:17:07;;;;;;;4.4;3.37;;;5.1;99.9;;;;;;;;;
2020/12/25 00:17:12;;;;;;;4.4;3.37;;;5.1;99.9;;;;;;;;;
2020/12/25 00:17:28;;;;;;;4.4;3.37;;;5.1;99.9;;;;;;;;;
2020/12/25 00:17:38;;;;;;;3.87;2.8;;;5.1;99.9;;;;;;;;;
2020/12/25 00:17:53;;;;;;;3.87;2.8;;;5.1;99.9;;;;;;;;;
2020/12/25 00:18:02;;;;;;;3.87;2.8;;;5.1;99.9;;;;;;;;;
2020/12/25 00:18:09;;;;;;;3.87;2.8;;;5.1;99.9;;;;;;;;;
2020/12/25 00:18:14;;;;;;;3.87;2.8;;;5.1;99.9;;;;;;;;;
2020/12/25 00:18:34;;;;;;;4.4;2.97;;;5.2;99.9;;;;;;;;;
2020/12/25 00:18:39;;;;;;;4.4;2.97;;;5.2;99.9;;;;;;;;;
2020/12/25 00:18:55;;;;;;;4.4;2.97;;;5.2;99.9;;;;;;;;;
2020/12/25 00:19:01;;;;;;;4.4;2.97;;;5.2;99.9;;;;;;;;;
2020/12/25 00:19:05;;;;;;;4.4;2.97;;;5.2;99.9;;;;;;;;;
2020/12/25 00:19:15;;;;;;;4.4;2.97;;;5.2;99.9;;;;;;;;;
2020/12/25 00:19:25;;;;;;;4.4;2.97;;;5.2;99.9;;;;;;;;;
2020/12/25 00:19:41;;;;;;;4.83;3.3;;;5.2;99.9;;;;;;;;;
2020/12/25 00:19:51;;;;;;;4.83;3.3;;;5.2;99.9;;;;;;;;;
2020/12/25 00:20:02;;;;;;;4.83;3.3;;;5.2;99.9;;;;;;;;;
2020/12/25 00:20:06;;;;;;;4.83;3.3;;;5.2;99.9;;;;;;;;;
2020/12/25 00:20:16;;;;;;;4.83;3.3;;;5.2;99.9;;;;;;;;;
2020/12/25 00:20:27;;;;;;;4.83;3.3;;;5.2;99.9;;;;;;;;;
2020/12/25 00:20:47;;;;;;;3.57;3.1;;;5.3;99.9;;;;;;;;;
2020/12/25 00:20:52;;;;;;;3.57;3.1;;;5.3;99.9;;;;;;;;;
2020/12/25 00:21:02;;;;;;;3.57;3.1;;;5.3;99.9;;;;;;;;;
2020/12/25 00:21:08;;;;;;;3.57;3.1;;;5.3;99.9;;;;;;;;;
2020/12/25 00:21:15;;;;;;;3.57;3.1;;;5.3;99.9;;;;;;;;;
2020/12/25 00:21:28;;;;;;;3.57;3.1;;;5.3;99.9;;;;;;;;;
2020/12/25 00:21:38;;;;;;;4.5;3.2;;;5.2;99.9;;;;;;;;;
2020/12/25 00:21:54;;;;;;;4.5;3.2;;;5.2;99.9;;;;;;;;;
2020/12/25 00:22:02;;;;;;;4.5;3.2;;;5.2;99.9;;;;;;;;;
2020/12/25 00:22:04;;;;;;;4.5;3.2;;;5.2;99.9;;;;;;;;;
2020/12/25 00:22:14;;;;;;;4.5;3.2;;;5.2;99.9;;;;;;;;;
2020/12/25 00:22:30;;;;;;;4.5;3.2;;;5.2;99.9;;;;;;;;;
2020/12/25 00:22:40;;;;;;;4.3;2.93;;;5.2;99.9;;;;;;;;;
2020/12/25 00:23:00;;;;;;;4.3;2.93;;;5.2;99.9;;;;;;;;;
2020/12/25 00:23:02;;;;;;;4.3;2.93;;;5.2;99.9;;;;;;;;;
2020/12/25 00:23:05;;;;;;;4.3;2.93;;;5.2;99.9;;;;;;;;;
2020/12/25 00:23:16;;;;;;;4.3;2.93;;;5.2;99.9;;;;;;;;;
2020/12/25 00:23:27;;;;;;;4.3;2.93;;;5.2;99.9;;;;;;;;;
2020/12/25 00:23:41;;;;;;;3.83;3;;;5.2;99.9;;;;;;;;;
2020/12/25 00:23:52;;;;;;;3.83;3;;;5.2;99.9;;;;;;;;;
2020/12/25 00:24:01;;;;;;;3.83;3;;;5.2;99.9;;;;;;;;;
2020/12/25 00:24:08;;;;;;;3.83;3;;;5.2;99.9;;;;;;;;;
2020/12/25 00:24:12;;;;;;;3.83;3;;;5.2;99.9;;;;;;;;;
2020/12/25 00:24:27;;;;;;;3.83;3;;;5.2;99.9;;;;;;;;;
2020/12/25 00:24:43;;;;;;;5.7;3.2;;;5.1;99.9;;;;;;;;;
2020/12/25 00:24:53;;;;;;;5.7;3.2;;;5.1;99.9;;;;;;;;;
2020/12/25 00:25:02;;;;;;;5.7;3.2;;;5.1;99.9;;;;;;;;;
2020/12/25 00:25:13;;;;;;;5.7;3.2;;;5.1;99.9;;;;;;;;;
2020/12/25 00:25:13;;;;;;;5.7;3.2;;;5.1;99.9;;;;;;;;;
2020/12/25 00:25:29;;;;;;;5.7;3.2;;;5.1;99.9;;;;;;;;;
2020/12/25 00:25:39;;;;;;;4.53;3.5;;;5;99.9;;;;;;;;;
2020/12/25 00:25:54;;;;;;;4.53;3.5;;;5;99.9;;;;;;;;;
2020/12/25 00:26:02;;;;;;;4.53;3.5;;;5;99.9;;;;;;;;;
2020/12/25 00:26:05;;;;;;;4.53;3.5;;;5;99.9;;;;;;;;;
2020/12/25 00:26:15;;;;;;;4.53;3.5;;;5;99.9;;;;;;;;;
2020/12/25 00:26:25;;;;;;;4.53;3.5;;;5;99.9;;;;;;;;;
2020/12/25 00:26:41;;;;;;;4.13;3.03;;;5.1;99.9;;;;;;;;;
2020/12/25 00:26:56;;;;;;;4.13;3.03;;;5.1;99.9;;;;;;;;;
2020/12/25 00:27:02;;;;;;;4.13;3.03;;;5.1;99.9;;;;;;;;;
2020/12/25 00:27:06;;;;;;;4.13;3.03;;;5.1;99.9;;;;;;;;;
2020/12/25 00:27:17;;;;;;;4.13;3.03;;;5.1;99.9;;;;;;;;;
2020/12/25 00:27:27;;;;;;;4.13;3.03;;;5.1;99.9;;;;;;;;;
2020/12/25 00:27:42;;;;;;;5.8;3.4;;;5.1;99.9;;;;;;;;;
2020/12/25 00:27:52;;;;;;;5.8;3.4;;;5.1;99.9;;;;;;;;;
2020/12/25 00:28:02;;;;;;;5.8;3.4;;;5.1;99.9;;;;;;;;;
2020/12/25 00:28:08;;;;;;;5.8;3.4;;;5.1;99.9;;;;;;;;;
2020/12/25 00:28:13;;;;;;;5.8;3.4;;;5.1;99.9;;;;;;;;;
2020/12/25 00:28:33;;;;;;;5.8;3.4;;;5.1;99.9;;;;;;;;;
2020/12/25 00:28:38;;;;;;;4.9;3.4;;;5.2;99.9;;;;;;;;;
2020/12/25 00:28:54;;;;;;;4.9;3.4;;;5.2;99.9;;;;;;;;;
2020/12/25 00:29:01;;;;;;;4.9;3.4;;;5.2;99.9;;;;;;;;;
2020/12/25 00:29:09;;;;;;;4.9;3.4;;;5.2;99.9;;;;;;;;;
2020/12/25 00:29:14;;;;;;;4.9;3.4;;;5.2;99.9;;;;;;;;;
2020/12/25 00:29:29;;;;;;;4.9;3.4;;;5.2;99.9;;;;;;;;;
2020/12/25 00:29:40;;;;;;;3.8;3.4;;;5.1;99.9;;;;;;;;;
2020/12/25 00:29:55;;;;;;;3.8;3.4;;;5.1;99.9;;;;;;;;;
2020/12/25 00:30:02;;;;;;;3.8;3.4;;;5.1;99.9;;;;;;;;;
2020/12/25 00:30:05;;;;;;;3.8;3.4;;;5.1;99.9;;;;;;;;;
2020/12/25 00:30:16;;;;;;;3.8;3.4;;;5.1;99.9;;;;;;;;;
2020/12/25 00:30:26;;;;;;;3.8;3.4;;;5.1;99.9;;;;;;;;;
2020/12/25 00:30:46;;;;;;;8.7;3.2;;;5.1;99.9;;;;;;;;;
2020/12/25 00:30:51;;;;;;;8.7;3.2;;;5.1;99.9;;;;;;;;;
2020/12/25 00:31:01;;;;;;;8.7;3.2;;;5.1;99.9;;;;;;;;;
2020/12/25 00:31:07;;;;;;;8.7;3.2;;;5.1;99.9;;;;;;;;;
2020/12/25 00:31:17;;;;;;;8.7;3.2;;;5.1;99.9;;;;;;;;;
2020/12/25 00:31:28;;;;;;;8.7;3.2;;;5.1;99.9;;;;;;;;;
2020/12/25 00:31:43;;;;;;;5;2.7;;;5.1;99.9;;;;;;;;;
2020/12/25 00:31:53;;;;;;;5;2.7;;;5.1;99.9;;;;;;;;;
2020/12/25 00:32:02;;;;;;;5;2.7;;;5.1;99.9;;;;;;;;;
2020/12/25 00:32:08;;;;;;;5;2.7;;;5.1;99.9;;;;;;;;;
2020/12/25 00:32:13;;;;;;;5;2.7;;;5.1;99.9;;;;;;;;;
2020/12/25 00:32:29;;;;;;;5;2.7;;;5.1;99.9;;;;;;;;;
2020/12/25 00:32:39;;;;;;;3.97;2.73;;;5.2;99.9;;;;;;;;;
2020/12/25 00:32:59;;;;;;;3.97;2.73;;;5.2;99.9;;;;;;;;;
2020/12/25 00:33:02;;;;;;;3.97;2.73;;;5.2;99.9;;;;;;;;;
2020/12/25 00:33:05;;;;;;;3.97;2.73;;;5.2;99.9;;;;;;;;;
2020/12/25 00:33:15;;;;;;;3.97;2.73;;;5.2;99.9;;;;;;;;;
2020/12/25 00:33:35;;;;;;;3.97;2.73;;;5.2;99.9;;;;;;;;;
2020/12/25 00:33:40;;;;;;;4.9;3.23;;;5.1;99.9;;;;;;;;;
2020/12/25 00:33:56;;;;;;;4.9;3.23;;;5.1;99.9;;;;;;;;;
2020/12/25 00:34:01;;;;;;;4.9;3.23;;;5.1;99.9;;;;;;;;;
2020/12/25 00:34:06;;;;;;;4.9;3.23;;;5.1;99.9;;;;;;;;;
2020/12/25 00:34:16;;;;;;;4.9;3.23;;;5.1;99.9;;;;;;;;;
2020/12/25 00:34:26;;;;;;;4.9;3.23;;;5.1;99.9;;;;;;;;;
2020/12/25 00:34:42;;;;;;;5.6;3.1;;;5.2;99.9;;;;;;;;;
2020/12/25 00:34:52;;;;;;;5.6;3.1;;;5.2;99.9;;;;;;;;;
2020/12/25 00:35:02;;;;;;;5.6;3.1;;;5.2;99.9;;;;;;;;;
2020/12/25 00:35:13;;;;;;;5.6;3.1;;;5.2;99.9;;;;;;;;;
2020/12/25 00:35:13;;;;;;;5.6;3.1;;;5.2;99.9;;;;;;;;;
2020/12/25 00:35:28;;;;;;;5.6;3.1;;;5.2;99.9;;;;;;;;;
2020/12/25 00:35:48;;;;;;;7.53;3.4;;;5.1;99.9;;;;;;;;;
2020/12/25 00:35:53;;;;;;;7.53;3.4;;;5.1;99.9;;;;;;;;;
2020/12/25 00:36:01;;;;;;;7.53;3.4;;;5.1;99.9;;;;;;;;;
2020/12/25 00:36:09;;;;;;;7.53;3.4;;;5.1;99.9;;;;;;;;;
2020/12/25 00:36:14;;;;;;;7.53;3.4;;;5.1;99.9;;;;;;;;;
2020/12/25 00:36:29;;;;;;;7.53;3.4;;;5.1;99.9;;;;;;;;;
2020/12/25 00:36:40;;;;;;;5.63;3.63;;;5;99.9;;;;;;;;;
2020/12/25 00:36:55;;;;;;;5.63;3.63;;;5;99.9;;;;;;;;;
2020/12/25 00:37:02;;;;;;;5.63;3.63;;;5;99.9;;;;;;;;;
2020/12/25 00:37:05;;;;;;;5.63;3.63;;;5;99.9;;;;;;;;;
2020/12/25 00:37:15;;;;;;;5.63;3.63;;;5;99.9;;;;;;;;;
2020/12/25 00:37:26;;;;;;;5.63;3.63;;;5;99.9;;;;;;;;;
2020/12/25 00:37:41;;;;;;;4.6;3.4;;;5.1;99.9;;;;;;;;;
2020/12/25 00:38:01;;;;;;;4.6;3.4;;;5.1;99.9;;;;;;;;;
2020/12/25 00:38:01;;;;;;;4.6;3.4;;;5.1;99.9;;;;;;;;;
2020/12/25 00:38:07;;;;;;;4.6;3.4;;;5.1;99.9;;;;;;;;;
2020/12/25 00:38:12;;;;;;;4.6;3.4;;;5.1;99.9;;;;;;;;;
2020/12/25 00:38:32;;;;;;;4.6;3.4;;;5.1;99.9;;;;;;;;;
2020/12/25 00:38:42;;;;;;;5.1;3.17;;;5.1;99.9;;;;;;;;;
2020/12/25 00:38:53;;;;;;;5.1;3.17;;;5.1;99.9;;;;;;;;;
2020/12/25 00:39:02;;;;;;;5.1;3.17;;;5.1;99.9;;;;;;;;;
2020/12/25 00:39:08;;;;;;;5.1;3.17;;;5.1;99.9;;;;;;;;;
2020/12/25 00:39:13;;;;;;;5.1;3.17;;;5.1;99.9;;;;;;;;;
2020/12/25 00:39:28;;;;;;;5.1;3.17;;;5.1;99.9;;;;;;;;;
2020/12/25 00:39:39;;;;;;;5.43;3.33;;;5.1;99.9;;;;;;;;;
2020/12/25 00:39:54;;;;;;;5.43;3.33;;;5.1;99.9;;;;;;;;;
2020/12/25 00:40:02;;;;;;;5.43;3.33;;;5.1;99.9;;;;;;;;;
2020/12/25 00:40:15;;;;;;;5.43;3.33;;;5.1;99.9;;;;;;;;;
2020/12/25 00:40:15;;;;;;;5.43;3.33;;;5.1;99.9;;;;;;;;;
2020/12/25 00:40:25;;;;;;;5.43;3.33;;;5.1;99.9;;;;;;;;;
2020/12/25 00:40:45;;;;;;;4.6;2.93;;;5;99.9;;;;;;;;;
2020/12/25 00:40:56;;;;;;;4.6;2.93;;;5;99.9;;;;;;;;;
2020/12/25 00:41:01;;;;;;;4.6;2.93;;;5;99.9;;;;;;;;;
2020/12/25 00:41:06;;;;;;;4.6;2.93;;;5;99.9;;;;;;;;;
2020/12/25 00:41:16;;;;;;;4.6;2.93;;;5;99.9;;;;;;;;;
2020/12/25 00:41:26;;;;;;;4.6;2.93;;;5;99.9;;;;;;;;;
2020/12/25 00:41:42;;;;;;;5.37;3.33;;;5.1;99.9;;;;;;;;;
2020/12/25 00:41:52;;;;;;;5.37;3.33;;;5.1;99.9;;;;;;;;;
2020/12/25 00:42:02;;;;;;;5.37;3.33;;;5.1;99.9;;;;;;;;;
2020/12/25 00:42:07;;;;;;;5.37;3.33;;;5.1;99.9;;;;;;;;;
2020/12/25 00:42:12;;;;;;;5.37;3.33;;;5.1;99.9;;;;;;;;;
2020/12/25 00:42:28;;;;;;;5.37;3.33;;;5.1;99.9;;;;;;;;;
2020/12/25 00:42:38;;;;;;;5.37;3.33;;;5.1;99.9;;;;;;;;;
2020/12/25 00:42:58;;;;;;;3.97;2.93;;;5.1;99.9;;;;;;;;;
2020/12/25 00:43:01;;;;;;;3.97;2.93;;;5.1;99.9;;;;;;;;;
2020/12/25 00:43:09;;;;;;;3.97;2.93;;;5.1;99.9;;;;;;;;;
2020/12/25 00:43:14;;;;;;;3.97;2.93;;;5.1;99.9;;;;;;;;;
2020/12/25 00:43:29;;;;;;;3.97;2.93;;;5.1;99.9;;;;;;;;;
2020/12/25 00:43:39;;;;;;;3.97;2.93;;;5.1;99.9;;;;;;;;;
2020/12/25 00:43:55;;;;;;;5.03;3.27;;;5.1;99.9;;;;;;;;;
2020/12/25 00:44:01;;;;;;;5.03;3.27;;;5.1;99.9;;;;;;;;;
2020/12/25 00:44:05;;;;;;;5.03;3.27;;;5.1;99.9;;;;;;;;;
2020/12/25 00:44:15;;;;;;;5.03;3.27;;;5.1;99.9;;;;;;;;;
2020/12/25 00:44:25;;;;;;;5.03;3.27;;;5.1;99.9;;;;;;;;;
2020/12/25 00:44:42;;;;;;;6.87;3.57;;;5.1;99.9;;;;;;;;;
2020/12/25 00:44:51;;;;;;;6.87;3.57;;;5.1;99.9;;;;;;;;;
2020/12/25 00:45:03;;;;;;;6.87;3.57;;;5.1;99.9;;;;;;;;;
2020/12/25 00:45:12;;;;;;;6.87;3.57;;;5.1;99.9;;;;;;;;;
2020/12/25 00:45:12;;;;;;;6.87;3.57;;;5.1;99.9;;;;;;;;;
2020/12/25 00:45:27;;;;;;;6.87;3.57;;;5.1;99.9;;;;;;;;;
2020/12/25 00:45:42;;;;;;;5.2;3.17;;;5;99.9;;;;;;;;;
2020/12/25 00:45:53;;;;;;;5.2;3.17;;;5;99.9;;;;;;;;;
2020/12/25 00:46:01;;;;;;;5.2;3.17;;;5;99.9;;;;;;;;;
2020/12/25 00:46:08;;;;;;;5.2;3.17;;;5;99.9;;;;;;;;;
2020/12/25 00:46:13;;;;;;;5.2;3.17;;;5;99.9;;;;;;;;;
2020/12/25 00:46:28;;;;;;;5.2;3.17;;;5;99.9;;;;;;;;;
2020/12/25 00:46:39;;;;;;;5.2;3.17;;;5;99.9;;;;;;;;;
2020/12/25 00:46:54;;;;;;;4.13;3.2;;;5;99.9;;;;;;;;;
2020/12/25 00:47:02;;;;;;;4.13;3.2;;;5;99.9;;;;;;;;;
2020/12/25 00:47:04;;;;;;;4.13;3.2;;;5;99.9;;;;;;;;;
2020/12/25 00:47:14;;;;;;;4.13;3.2;;;5;99.9;;;;;;;;;
2020/12/25 00:47:25;;;;;;;4.13;3.2;;;5;99.9;;;;;;;;;
2020/12/25 00:47:40;;;;;;;4.13;3.2;;;5;99.9;;;;;;;;;
2020/12/25 00:47:55;;;;;;;3.27;2.8;;;5.1;99.9;;;;;;;;;
2020/12/25 00:48:01;;;;;;;3.27;2.8;;;5.1;99.9;;;;;;;;;
2020/12/25 00:48:06;;;;;;;3.27;2.8;;;5.1;99.9;;;;;;;;;
2020/12/25 00:48:16;;;;;;;3.27;2.8;;;5.1;99.9;;;;;;;;;
2020/12/25 00:48:27;;;;;;;3.27;2.8;;;5.1;99.9;;;;;;;;;
2020/12/25 00:48:42;;;;;;;4.53;3.07;;;5.1;99.9;;;;;;;;;
2020/12/25 00:48:53;;;;;;;4.53;3.07;;;5.1;99.9;;;;;;;;;
2020/12/25 00:49:02;;;;;;;4.53;3.07;;;5.1;99.9;;;;;;;;;
2020/12/25 00:49:07;;;;;;;4.53;3.07;;;5.1;99.9;;;;;;;;;
2020/12/25 00:49:12;;;;;;;4.53;3.07;;;5.1;99.9;;;;;;;;;
2020/12/25 00:49:27;;;;;;;4.53;3.07;;;5.1;99.9;;;;;;;;;
2020/12/25 00:49:38;;;;;;;4.53;3.07;;;5.1;99.9;;;;;;;;;
2020/12/25 00:49:53;;;;;;;4.9;3.6;;;5.2;99.9;;;;;;;;;
2020/12/25 00:50:02;;;;;;;4.9;3.6;;;5.2;99.9;;;;;;;;;
2020/12/25 00:50:08;;;;;;;4.9;3.6;;;5.2;99.9;;;;;;;;;
2020/12/25 00:50:14;;;;;;;4.9;3.6;;;5.2;99.9;;;;;;;;;
2020/12/25 00:50:29;;;;;;;4.9;3.6;;;5.2;99.9;;;;;;;;;
2020/12/25 00:50:39;;;;;;;4.9;3.6;;;5.2;99.9;;;;;;;;;
2020/12/25 00:50:55;;;;;;;5.83;3.4;;;5.2;99.9;;;;;;;;;
2020/12/25 00:51:01;;;;;;;5.83;3.4;;;5.2;99.9;;;;;;;;;
2020/12/25 00:51:05;;;;;;;5.83;3.4;;;5.2;99.9;;;;;;;;;
2020/12/25 00:51:15;;;;;;;5.83;3.4;;;5.2;99.9;;;;;;;;;
2020/12/25 00:51:25;;;;;;;5.83;3.4;;;5.2;99.9;;;;;;;;;
2020/12/25 00:51:41;;;;;;;5.83;3.4;;;5.2;99.9;;;;;;;;;
2020/12/25 00:51:51;;;;;;;3.47;3.17;;;5.2;99.9;;;;;;;;;
2020/12/25 00:52:02;;;;;;;3.47;3.17;;;5.2;99.9;;;;;;;;;
2020/12/25 00:52:06;;;;;;;3.47;3.17;;;5.2;99.9;;;;;;;;;
2020/12/25 00:52:17;;;;;;;3.47;3.17;;;5.2;99.9;;;;;;;;;
2020/12/25 00:52:27;;;;;;;3.47;3.17;;;5.2;99.9;;;;;;;;;
2020/12/25 00:52:42;;;;;;;3.47;3.17;;;5.2;99.9;;;;;;;;;
2020/12/25 00:52:52;;;;;;;5.33;2.93;;;5.3;99.9;;;;;;;;;
2020/12/25 00:53:01;;;;;;;5.33;2.93;;;5.3;99.9;;;;;;;;;
2020/12/25 00:53:08;;;;;;;5.33;2.93;;;5.3;99.9;;;;;;;;;
2020/12/25 00:53:13;;;;;;;5.33;2.93;;;5.3;99.9;;;;;;;;;
2020/12/25 00:53:28;;;;;;;5.33;2.93;;;5.3;99.9;;;;;;;;;
2020/12/25 00:53:38;;;;;;;5.33;2.93;;;5.3;99.9;;;;;;;;;
2020/12/25 00:53:54;;;;;;;3.73;3;;;5.3;99.9;;;;;;;;;
2020/12/25 00:54:02;;;;;;;3.73;3;;;5.3;99.9;;;;;;;;;
2020/12/25 00:54:04;;;;;;;3.73;3;;;5.3;99.9;;;;;;;;;
2020/12/25 00:54:14;;;;;;;3.73;3;;;5.3;99.9;;;;;;;;;
2020/12/25 00:54:30;;;;;;;3.73;3;;;5.3;99.9;;;;;;;;;
2020/12/25 00:54:40;;;;;;;3.73;3;;;5.3;99.9;;;;;;;;;
2020/12/25 00:54:55;;;;;;;4.57;3.1;;;5.3;99.9;;;;;;;;;
2020/12/25 00:55:02;;;;;;;4.57;3.1;;;5.3;99.9;;;;;;;;;
2020/12/25 00:55:05;;;;;;;4.57;3.1;;;5.3;99.9;;;;;;;;;
2020/12/25 00:55:16;;;;;;;4.57;3.1;;;5.3;99.9;;;;;;;;;
2020/12/25 00:55:26;;;;;;;4.57;3.1;;;5.3;99.9;;;;;;;;;
2020/12/25 00:55:41;;;;;;;4.57;3.1;;;5.3;99.9;;;;;;;;;
2020/12/25 00:55:52;;;;;;;4.67;3.13;;;5.2;99.9;;;;;;;;;
2020/12/25 00:56:01;;;;;;;4.67;3.13;;;5.2;99.9;;;;;;;;;
2020/12/25 00:56:07;;;;;;;4.67;3.13;;;5.2;99.9;;;;;;;;;
2020/12/25 00:56:12;;;;;;;4.67;3.13;;;5.2;99.9;;;;;;;;;
2020/12/25 00:56:27;;;;;;;4.67;3.13;;;5.2;99.9;;;;;;;;;
2020/12/25 00:56:43;;;;;;;4.67;3.13;;;5.2;99.9;;;;;;;;;
2020/12/25 00:56:53;;;;;;;6.23;3.3;;;5.1;99.9;;;;;;;;;
2020/12/25 00:57:02;;;;;;;6.23;3.3;;;5.1;99.9;;;;;;;;;
2020/12/25 00:57:08;;;;;;;6.23;3.3;;;5.1;99.9;;;;;;;;;
2020/12/25 00:57:13;;;;;;;6.23;3.3;;;5.1;99.9;;;;;;;;;
2020/12/25 00:57:29;;;;;;;6.23;3.3;;;5.1;99.9;;;;;;;;;
2020/12/25 00:57:39;;;;;;;6.23;3.3;;;5.1;99.9;;;;;;;;;
2020/12/25 00:57:54;;;;;;;4.93;3.07;;;5.1;99.9;;;;;;;;;
2020/12/25 00:58:02;;;;;;;4.93;3.07;;;5.1;99.9;;;;;;;;;
2020/12/25 00:58:05;;;;;;;4.93;3.07;;;5.1;99.9;;;;;;;;;
2020/12/25 00:58:15;;;;;;;4.93;3.07;;;5.1;99.9;;;;;;;;;
2020/12/25 00:58:25;;;;;;;4.93;3.07;;;5.1;99.9;;;;;;;;;
2020/12/25 00:58:41;;;;;;;4.93;3.07;;;5.1;99.9;;;;;;;;;
2020/12/25 00:58:56;;;;;;;5.13;2.9;;;5;99.9;;;;;;;;;
2020/12/25 00:59:02;;;;;;;5.13;2.9;;;5;99.9;;;;;;;;;
2020/12/25 00:59:06;;;;;;;5.13;2.9;;;5;99.9;;;;;;;;;
2020/12/25 00:59:16;;;;;;;5.13;2.9;;;5;99.9;;;;;;;;;
2020/12/25 00:59:27;;;;;;;5.13;2.9;;;5;99.9;;;;;;;;;
2020/12/25 00:59:42;;;;;;;5.13;2.9;;;5;99.9;;;;;;;;;
2020/12/25 00:59:52;;;;;;;5.63;3.2;;;5;99.9;;;;;;;;;
2020/12/25 01:00:02;;;;;;;5.63;3.2;;;5;99.9;;;;;;;;;
2020/12/25 01:00:08;;;;;;;5.63;3.2;;;5;99.9;;;;;;;;;
2020/12/25 01:00:13;;;;;;;5.63;3.2;;;5;99.9;;;;;;;;;
2020/12/25 01:00:28;;;;;;;5.63;3.2;;;5;99.9;;;;;;;;;
2020/12/25 01:00:38;;;;;;;5.63;3.2;;;5;99.9;;;;;;;;;
2020/12/25 01:00:54;;;;;;;3;2.67;;;4.9;99.9;;;;;;;;;
2020/12/25 01:01:01;;;;;;;3;2.67;;;4.9;99.9;;;;;;;;;
2020/12/25 01:01:09;;;;;;;3;2.67;;;4.9;99.9;;;;;;;;;
2020/12/25 01:01:14;;;;;;;3;2.67;;;4.9;99.9;;;;;;;;;
2020/12/25 01:01:29;;;;;;;3;2.67;;;4.9;99.9;;;;;;;;;
2020/12/25 01:01:40;;;;;;;3;2.67;;;4.9;99.9;;;;;;;;;
2020/12/25 01:01:55;;;;;;;5.53;3;;;5;99.9;;;;;;;;;
2020/12/25 01:02:02;;;;;;;5.53;3;;;5;99.9;;;;;;;;;
2020/12/25 01:02:05;;;;;;;5.53;3;;;5;99.9;;;;;;;;;
2020/12/25 01:02:16;;;;;;;5.53;3;;;5;99.9;;;;;;;;;
2020/12/25 01:02:28;;;;;;;5.53;3;;;5;99.9;;;;;;;;;
2020/12/25 01:02:42;;;;;;;5.53;3;;;5;99.9;;;;;;;;;
2020/12/25 01:02:51;;;;;;;5.57;2.87;;;4.9;99.9;;;;;;;;;
2020/12/25 01:03:01;;;;;;;5.57;2.87;;;4.9;99.9;;;;;;;;;
2020/12/25 01:03:07;;;;;;;5.57;2.87;;;4.9;99.9;;;;;;;;;
2020/12/25 01:03:12;;;;;;;5.57;2.87;;;4.9;99.9;;;;;;;;;
2020/12/25 01:03:27;;;;;;;5.57;2.87;;;4.9;99.9;;;;;;;;;
2020/12/25 01:03:43;;;;;;;5.57;2.87;;;4.9;99.9;;;;;;;;;
2020/12/25 01:03:54;;;;;;;5;3.1;;;4.9;99.9;;;;;;;;;
2020/12/25 01:04:02;;;;;;;5;3.1;;;4.9;99.9;;;;;;;;;
2020/12/25 01:04:08;;;;;;;5;3.1;;;4.9;99.9;;;;;;;;;
2020/12/25 01:04:13;;;;;;;5;3.1;;;4.9;99.9;;;;;;;;;
2020/12/25 01:04:29;;;;;;;5;3.1;;;4.9;99.9;;;;;;;;;
2020/12/25 01:04:39;;;;;;;5;3.1;;;4.9;99.9;;;;;;;;;
2020/12/25 01:04:54;;;;;;;4.47;3;;;4.9;99.9;;;;;;;;;
2020/12/25 01:05:02;;;;;;;4.47;3;;;4.9;99.9;;;;;;;;;
2020/12/25 01:05:05;;;;;;;4.47;3;;;4.9;99.9;;;;;;;;;
2020/12/25 01:05:15;;;;;;;4.47;3;;;4.9;99.9;;;;;;;;;
2020/12/25 01:05:25;;;;;;;4.47;3;;;4.9;99.9;;;;;;;;;
2020/12/25 01:05:40;;;;;;;4.47;3;;;4.9;99.9;;;;;;;;;
2020/12/25 01:05:56;;;;;;;4.87;2.73;;;4.9;99.9;;;;;;;;;
2020/12/25 01:06:01;;;;;;;4.87;2.73;;;4.9;99.9;;;;;;;;;
2020/12/25 01:06:06;;;;;;;4.87;2.73;;;4.9;99.9;;;;;;;;;
2020/12/25 01:06:16;;;;;;;4.87;2.73;;;4.9;99.9;;;;;;;;;
2020/12/25 01:06:26;;;;;;;4.87;2.73;;;4.9;99.9;;;;;;;;;
2020/12/25 01:06:42;;;;;;;4.87;2.73;;;4.9;99.9;;;;;;;;;
2020/12/25 01:06:52;;;;;;;4.43;2.97;;;5;99.9;;;;;;;;;
2020/12/25 01:07:02;;;;;;;4.43;2.97;;;5;99.9;;;;;;;;;
2020/12/25 01:07:07;;;;;;;4.43;2.97;;;5;99.9;;;;;;;;;
2020/12/25 01:07:13;;;;;;;4.43;2.97;;;5;99.9;;;;;;;;;
2020/12/25 01:07:29;;;;;;;4.43;2.97;;;5;99.9;;;;;;;;;
2020/12/25 01:07:38;;;;;;;4.43;2.97;;;5;99.9;;;;;;;;;
2020/12/25 01:07:53;;;;;;;5.3;2.9;;;5;99.9;;;;;;;;;
2020/12/25 01:08:01;;;;;;;5.3;2.9;;;5;99.9;;;;;;;;;
2020/12/25 01:08:09;;;;;;;5.3;2.9;;;5;99.9;;;;;;;;;
2020/12/25 01:08:15;;;;;;;5.3;2.9;;;5;99.9;;;;;;;;;
2020/12/25 01:08:29;;;;;;;5.3;2.9;;;5;99.9;;;;;;;;;
2020/12/25 01:08:40;;;;;;;5.3;2.9;;;5;99.9;;;;;;;;;
2020/12/25 01:08:55;;;;;;;3.7;2.87;;;4.9;99.9;;;;;;;;;
2020/12/25 01:09:02;;;;;;;3.7;2.87;;;4.9;99.9;;;;;;;;;
2020/12/25 01:09:05;;;;;;;3.7;2.87;;;4.9;99.9;;;;;;;;;
2020/12/25 01:09:15;;;;;;;3.7;2.87;;;4.9;99.9;;;;;;;;;
2020/12/25 01:09:26;;;;;;;3.7;2.87;;;4.9;99.9;;;;;;;;;
2020/12/25 01:09:41;;;;;;;3.7;2.87;;;4.9;99.9;;;;;;;;;
2020/12/25 01:09:51;;;;;;;4.17;2.73;;;4.9;99.9;;;;;;;;;
2020/12/25 01:10:02;;;;;;;4.17;2.73;;;4.9;99.9;;;;;;;;;
2020/12/25 01:10:07;;;;;;;4.17;2.73;;;4.9;99.9;;;;;;;;;
2020/12/25 01:10:12;;;;;;;4.17;2.73;;;4.9;99.9;;;;;;;;;
2020/12/25 01:10:27;;;;;;;4.17;2.73;;;4.9;99.9;;;;;;;;;
2020/12/25 01:10:42;;;;;;;4.17;2.73;;;4.9;99.9;;;;;;;;;
2020/12/25 01:10:53;;;;;;;4.6;3;;;4.9;99.9;;;;;;;;;
2020/12/25 01:11:02;;;;;;;4.6;3;;;4.9;99.9;;;;;;;;;
2020/12/25 01:11:08;;;;;;;4.6;3;;;4.9;99.9;;;;;;;;;
2020/12/25 01:11:13;;;;;;;4.6;3;;;4.9;99.9;;;;;;;;;
2020/12/25 01:11:28;;;;;;;4.6;3;;;4.9;99.9;;;;;;;;;
2020/12/25 01:11:39;;;;;;;4.6;3;;;4.9;99.9;;;;;;;;;
2020/12/25 01:11:54;;;;;;;4.3;3.23;;;4.9;99.9;;;;;;;;;
2020/12/25 01:12:02;;;;;;;4.3;3.23;;;4.9;99.9;;;;;;;;;
2020/12/25 01:12:04;;;;;;;4.3;3.23;;;4.9;99.9;;;;;;;;;
2020/12/25 01:12:15;;;;;;;4.3;3.23;;;4.9;99.9;;;;;;;;;
2020/12/25 01:12:25;;;;;;;4.3;3.23;;;4.9;99.9;;;;;;;;;
2020/12/25 01:12:40;;;;;;;4.3;3.23;;;4.9;99.9;;;;;;;;;
2020/12/25 01:12:56;;;;;;;4.13;3.5;;;4.9;99.9;;;;;;;;;
2020/12/25 01:13:01;;;;;;;4.13;3.5;;;4.9;99.9;;;;;;;;;
2020/12/25 01:13:06;;;;;;;4.13;3.5;;;4.9;99.9;;;;;;;;;
2020/12/25 01:13:16;;;;;;;4.13;3.5;;;4.9;99.9;;;;;;;;;
2020/12/25 01:13:26;;;;;;;4.13;3.5;;;4.9;99.9;;;;;;;;;
2020/12/25 01:13:43;;;;;;;4.13;3.5;;;4.9;99.9;;;;;;;;;
2020/12/25 01:13:52;;;;;;;3.6;2.73;;;4.9;99.9;;;;;;;;;
2020/12/25 01:14:02;;;;;;;3.6;2.73;;;4.9;99.9;;;;;;;;;
2020/12/25 01:14:07;;;;;;;3.6;2.73;;;4.9;99.9;;;;;;;;;
2020/12/25 01:14:12;;;;;;;3.6;2.73;;;4.9;99.9;;;;;;;;;
2020/12/25 01:14:28;;;;;;;3.6;2.73;;;4.9;99.9;;;;;;;;;
2020/12/25 01:14:38;;;;;;;3.6;2.73;;;4.9;99.9;;;;;;;;;
2020/12/25 01:14:53;;;;;;;6.43;3.13;;;4.9;99.9;;;;;;;;;
2020/12/25 01:15:02;;;;;;;6.43;3.13;;;4.9;99.9;;;;;;;;;
2020/12/25 01:15:09;;;;;;;6.43;3.13;;;4.9;99.9;;;;;;;;;
2020/12/25 01:15:14;;;;;;;6.43;3.13;;;4.9;99.9;;;;;;;;;
2020/12/25 01:15:29;;;;;;;6.43;3.13;;;4.9;99.9;;;;;;;;;
2020/12/25 01:15:39;;;;;;;6.43;3.13;;;4.9;99.9;;;;;;;;;
2020/12/25 01:15:55;;;;;;;3.83;3.27;;;4.8;99.9;;;;;;;;;
2020/12/25 01:16:02;;;;;;;3.83;3.27;;;4.8;99.9;;;;;;;;;
2020/12/25 01:16:05;;;;;;;3.83;3.27;;;4.8;99.9;;;;;;;;;
2020/12/25 01:16:15;;;;;;;3.83;3.27;;;4.8;99.9;;;;;;;;;
2020/12/25 01:16:25;;;;;;;3.83;3.27;;;4.8;99.9;;;;;;;;;
2020/12/25 01:16:41;;;;;;;3.83;3.27;;;4.8;99.9;;;;;;;;;
2020/12/25 01:16:51;;;;;;;4.57;2.77;;;4.9;99.9;;;;;;;;;
2020/12/25 01:17:02;;;;;;;4.57;2.77;;;4.9;99.9;;;;;;;;;
2020/12/25 01:17:06;;;;;;;4.57;2.77;;;4.9;99.9;;;;;;;;;
2020/12/25 01:17:17;;;;;;;4.57;2.77;;;4.9;99.9;;;;;;;;;
2020/12/25 01:17:27;;;;;;;4.57;2.77;;;4.9;99.9;;;;;;;;;
2020/12/25 01:17:42;;;;;;;4.57;2.77;;;4.9;99.9;;;;;;;;;
2020/12/25 01:17:53;;;;;;;5.03;2.5;;;4.9;99.9;;;;;;;;;
2020/12/25 01:18:01;;;;;;;5.03;2.5;;;4.9;99.9;;;;;;;;;